createdAt,value
2022-12-19T00:04:26.692Z,29.24
2022-12-19T00:09:23.936Z,32.94
2022-12-19T00:14:20.209Z,30.339999999999996
2022-12-19T00:19:17.520Z,35.74
2022-12-19T00:24:20.618Z,31.640000000000004
2022-12-19T00:29:18.974Z,29.560000000000002
2022-12-19T00:34:15.262Z,29.179999999999996
2022-12-19T00:39:11.499Z,29.840000000000003
2022-12-19T00:44:10.769Z,32.9
2022-12-19T00:49:06.995Z,27.72
2022-12-19T00:54:05.419Z,26.740000000000002
2022-12-19T00:59:03.498Z,24.62
2022-12-19T01:04:26.439Z,25.28
2022-12-19T01:09:23.958Z,24.6
2022-12-19T01:14:22.991Z,24.580000000000002
2022-12-19T01:19:19.505Z,22.619999999999997
2022-12-19T01:24:19.169Z,24.98
2022-12-19T01:29:15.973Z,25.279999999999998
2022-12-19T01:34:12.259Z,25.259999999999998
2022-12-19T01:39:08.502Z,26.740000000000002
2022-12-19T01:44:06.754Z,24.799999999999997
2022-12-19T01:49:05.987Z,26.139999999999997
2022-12-19T01:54:09.298Z,22.18
2022-12-19T01:59:07.466Z,22.080000000000002
2022-12-19T02:04:05.713Z,19.639999999999997
2022-12-19T02:09:02.993Z,20.380000000000003
2022-12-19T02:13:58.242Z,18.9
2022-12-19T02:19:05.530Z,18.04
2022-12-19T02:24:49.649Z,16.259999999999998
2022-12-19T02:30:07.855Z,16.22
2022-12-19T02:35:11.087Z,14.8
2022-12-19T02:40:16.336Z,15.040000000000001
2022-12-19T02:45:18.392Z,16.6
2022-12-19T02:50:23.803Z,17.380000000000003
2022-12-19T02:55:22.060Z,17.16
2022-12-19T03:00:27.302Z,17.619999999999997
2022-12-19T03:05:33.539Z,16.9
2022-12-19T03:10:35.781Z,15.319999999999999
2022-12-19T03:15:32.060Z,15.3
2022-12-19T03:20:33.365Z,16.26
2022-12-19T03:25:30.558Z,13.9
2022-12-19T03:30:33.815Z,14.14
2022-12-19T03:35:31.028Z,15.02
2022-12-19T03:40:32.311Z,14.459999999999999
2022-12-19T03:45:34.560Z,15.559999999999999
2022-12-19T03:50:32.789Z,14.239999999999998
2022-12-19T03:55:37.053Z,14.5
2022-12-19T04:00:37.288Z,14.620000000000001
2022-12-19T04:05:37.544Z,14.1
2022-12-19T04:10:39.812Z,15.36
2022-12-19T04:15:42.165Z,15.2
2022-12-19T04:20:41.321Z,15
2022-12-19T04:25:40.567Z,25.580000000000002
2022-12-19T04:30:41.826Z,71.94
2022-12-19T04:35:38.118Z,110.85999999999999
2022-12-19T04:40:39.339Z,88.08
2022-12-19T04:45:37.553Z,75.06
2022-12-19T04:50:33.819Z,23.119999999999997
2022-12-19T05:00:34.321Z,15.739999999999998
2022-12-19T05:05:30.556Z,21.259999999999998
2022-12-19T05:10:25.812Z,19
2022-12-19T05:15:21.104Z,21.66
2022-12-19T05:20:17.323Z,30.72
2022-12-19T05:25:12.574Z,33.67999999999999
2022-12-19T05:30:08.859Z,33.94
2022-12-19T05:35:05.121Z,26.2
2022-12-19T05:40:01.377Z,23.78
2022-12-19T05:44:57.634Z,17.98
2022-12-19T05:49:53.879Z,33.7
2022-12-19T05:54:50.144Z,27.24
2022-12-19T05:59:47.445Z,30.18
2022-12-19T06:04:43.681Z,27.82
2022-12-19T06:09:39.943Z,28.560000000000002
2022-12-19T06:14:39.219Z,31.360000000000003
2022-12-19T06:19:35.402Z,31.919999999999998
2022-12-19T06:24:31.668Z,33.92
2022-12-19T06:29:27.940Z,40.279999999999994
2022-12-19T06:34:55.085Z,54.92
2022-12-19T06:39:59.363Z,57.620000000000005
2022-12-19T06:44:56.144Z,71.46
2022-12-19T06:49:52.910Z,60.339999999999996
2022-12-19T06:54:48.161Z,40.36
2022-12-19T06:59:45.413Z,28.859999999999996
2022-12-19T07:04:45.673Z,36.46
2022-12-19T07:09:41.935Z,32.86
2022-12-19T07:14:38.144Z,38.34
2022-12-19T07:19:34.511Z,38.040000000000006
2022-12-19T07:24:30.722Z,29
2022-12-19T07:29:26.956Z,23.32
2022-12-19T07:34:23.228Z,19.34
2022-12-19T07:39:19.498Z,20.240000000000002
2022-12-19T07:46:52.343Z,34.220000000000006
2022-12-19T07:51:48.579Z,27.120000000000005
2022-12-19T07:56:44.924Z,25.520000000000003
2022-12-19T08:01:41.170Z,22.84
2022-12-19T08:06:41.295Z,25.939999999999998
2022-12-19T08:11:41.578Z,28.139999999999997
2022-12-19T08:17:03.238Z,23.099999999999998
2022-12-19T08:22:15.047Z,29.720000000000006
2022-12-19T08:27:11.350Z,26.22
2022-12-19T08:32:07.528Z,24
2022-12-19T08:37:03.796Z,22.36
2022-12-19T08:42:00.120Z,25.68
2022-12-19T08:46:56.328Z,31.420000000000005
2022-12-19T08:51:52.568Z,26.32
2022-12-19T08:56:49.833Z,35.38
2022-12-19T09:01:47.342Z,51.42
2022-12-19T09:06:44.454Z,41.94
2022-12-19T09:11:47.638Z,51.78000000000001
2022-12-19T09:16:45.955Z,33.52
2022-12-19T09:21:42.113Z,29.979999999999997
2022-12-19T09:26:39.551Z,38.04
2022-12-19T09:31:36.649Z,42.480000000000004
2022-12-19T09:36:32.860Z,33.8
2022-12-19T09:41:45.129Z,98.26
2022-12-19T09:46:48.963Z,30.8
2022-12-19T09:56:56.849Z,46.78
2022-12-19T10:01:57.219Z,24.7
2022-12-19T10:07:16.837Z,26.080000000000002
2022-12-19T10:12:42.462Z,24.499999999999996
2022-12-19T10:17:57.678Z,50.779999999999994
2022-12-19T10:23:03.972Z,182.61999999999998
2022-12-19T10:28:12.178Z,150.8
2022-12-19T10:33:20.026Z,216.54000000000002
2022-12-19T10:50:09.179Z,58.56
2022-12-19T10:55:20.044Z,51.44
2022-12-19T11:00:25.342Z,60.06
2022-12-19T11:05:23.655Z,40.96
2022-12-19T11:11:37.873Z,56.660000000000004
2022-12-19T11:29:19.606Z,44.42
2022-12-19T11:35:24.748Z,76.53999999999999
2022-12-19T11:40:31.291Z,24.740000000000002
2022-12-19T11:45:33.553Z,44.78000000000001
2022-12-19T11:49:57.853Z,134.5
2022-12-19T11:55:00.179Z,88.62
2022-12-19T12:00:04.726Z,77.64
2022-12-19T12:05:39.515Z,81.25999999999999
2022-12-19T12:15:51.039Z,87.75999999999999
2022-12-19T12:31:01.643Z,43.3
2022-12-19T12:31:42.621Z,45.54
2022-12-19T12:31:57.577Z,59.9
2022-12-19T12:37:13.797Z,48.540000000000006
2022-12-19T12:40:34.305Z,42.980000000000004
2022-12-19T12:45:34.576Z,49.56
2022-12-19T12:50:33.808Z,31.3
2022-12-19T12:55:32.045Z,26.82
2022-12-19T13:00:34.306Z,20.04
2022-12-19T13:05:38.551Z,18.58
2022-12-19T13:10:48.780Z,14.720000000000002
2022-12-19T13:15:51.973Z,17.360000000000003
2022-12-19T13:26:05.494Z,76.05999999999999
2022-12-19T13:31:21.001Z,182.32
2022-12-19T13:39:52.001Z,104.62
2022-12-19T13:41:29.132Z,46.18
2022-12-19T13:46:35.462Z,98.47999999999999
2022-12-19T13:51:41.642Z,101.11999999999999
2022-12-19T13:56:42.868Z,47.480000000000004
2022-12-19T14:01:44.250Z,36.02
2022-12-19T14:06:43.412Z,38.67999999999999
2022-12-19T14:12:27.661Z,25.240000000000002
2022-12-19T14:16:46.168Z,44.300000000000004
2022-12-19T14:22:10.548Z,36.379999999999995
2022-12-19T14:28:28.368Z,30.2
2022-12-19T14:31:58.717Z,61.44
2022-12-19T14:36:59.838Z,59.36
2022-12-19T14:42:03.074Z,90.66
2022-12-19T14:53:52.624Z,122.96
2022-12-19T14:54:31.210Z,109.12
2022-12-19T14:57:34.029Z,156.6
2022-12-19T15:02:27.945Z,203.6
2022-12-19T15:07:29.287Z,95.58
2022-12-19T15:14:46.594Z,128
2022-12-19T15:17:38.769Z,78.03999999999999
2022-12-19T15:22:35.037Z,50.56
2022-12-19T15:27:32.272Z,63.02
2022-12-19T15:32:28.479Z,74.64000000000001
2022-12-19T15:37:24.822Z,51.1
2022-12-19T15:42:23.072Z,66.24
2022-12-19T15:47:22.402Z,36.62
2022-12-19T15:52:19.552Z,47.9
2022-12-19T15:57:21.814Z,39.92
2022-12-19T16:07:23.310Z,58
2022-12-19T16:12:21.571Z,55.9
2022-12-19T16:17:20.837Z,45.76
2022-12-19T16:22:18.086Z,45.019999999999996
2022-12-19T16:27:18.300Z,57.67999999999999
2022-12-19T16:32:14.562Z,78.12
2022-12-19T16:37:10.793Z,58.3
2022-12-19T16:42:14.043Z,66.17999999999999
2022-12-19T16:47:12.347Z,50.940000000000005
2022-12-19T16:52:08.610Z,46.36
2022-12-19T16:57:11.826Z,52.5
2022-12-19T17:02:13.148Z,54.52
2022-12-19T17:12:17.602Z,58.14000000000001
2022-12-19T17:17:13.825Z,64.38
2022-12-19T17:22:11.095Z,66.34
2022-12-19T17:27:07.321Z,73.47999999999999
2022-12-19T17:32:03.639Z,77.53999999999999
2022-12-19T17:37:03.834Z,185.38
2022-12-19T17:42:01.086Z,176
2022-12-19T17:46:58.342Z,341.41999999999996
2022-12-19T17:51:54.582Z,179.88000000000002
2022-12-19T17:56:50.830Z,118.5
2022-12-19T18:01:50.380Z,64.38000000000001
2022-12-19T18:06:47.390Z,42.06
2022-12-19T18:11:48.833Z,28.139999999999997
2022-12-19T18:16:47.071Z,22.94
2022-12-19T18:21:45.194Z,18.919999999999998
2022-12-19T18:26:42.388Z,19.54
2022-12-19T18:31:50.472Z,18.099999999999998
2022-12-19T18:36:48.896Z,18.560000000000002
2022-12-19T18:41:45.151Z,18.580000000000002
2022-12-19T18:46:43.379Z,19.360000000000003
2022-12-19T18:51:44.874Z,22.42
2022-12-19T18:56:40.863Z,17.84
2022-12-19T19:01:39.258Z,18.92
2022-12-19T19:06:38.115Z,20.020000000000003
2022-12-19T19:11:34.814Z,20.360000000000003
2022-12-19T19:16:31.994Z,19.14
2022-12-19T19:21:29.195Z,23.300000000000004
2022-12-19T19:26:25.432Z,18.639999999999997
2022-12-19T19:31:24.768Z,17.42
2022-12-19T19:36:24.959Z,23.580000000000002
2022-12-19T19:41:21.203Z,20.759999999999998
2022-12-19T19:46:17.603Z,21.279999999999998
2022-12-19T19:51:14.788Z,19.96
2022-12-19T19:56:10.996Z,44.88
2022-12-19T20:06:17.455Z,21.62
2022-12-19T20:11:13.687Z,17.68
2022-12-19T20:16:11.098Z,17.54
2022-12-19T20:21:12.296Z,22.279999999999998
2022-12-19T20:31:13.719Z,27.380000000000003
2022-12-19T20:36:10.953Z,22.700000000000003
2022-12-19T20:41:07.246Z,20.24
2022-12-19T20:46:04.569Z,21.119999999999997
2022-12-19T20:51:01.812Z,21.880000000000003
2022-12-19T20:55:59.033Z,19.66
2022-12-19T21:00:55.261Z,27.4
2022-12-19T21:05:51.518Z,25.6
2022-12-19T21:10:47.776Z,29.32
2022-12-19T21:15:44.103Z,25.959999999999997
2022-12-19T21:20:40.284Z,18.199999999999996
2022-12-19T21:25:36.568Z,14.239999999999998
2022-12-19T21:30:31.825Z,14.120000000000001
2022-12-19T21:35:38.141Z,16.8
2022-12-19T21:40:35.318Z,12.919999999999998
2022-12-19T21:45:31.546Z,13.540000000000001
2022-12-19T21:50:26.858Z,9.46
2022-12-19T21:55:23.087Z,15.4
2022-12-19T22:00:19.349Z,12.139999999999999
2022-12-19T22:05:15.628Z,12.780000000000001
2022-12-19T22:10:11.875Z,11.919999999999998
2022-12-19T22:15:09.188Z,11.84
2022-12-19T22:20:06.376Z,11.16
2022-12-19T22:25:02.620Z,12.540000000000001
2022-12-19T22:30:02.126Z,13.219999999999999
2022-12-19T22:40:06.400Z,11.1
2022-12-19T22:45:02.704Z,10.34
2022-12-19T22:49:58.909Z,9.84
2022-12-19T22:54:55.190Z,10.86
2022-12-19T22:59:51.402Z,8.48
2022-12-19T23:04:52.126Z,9.92
2022-12-19T23:09:48.923Z,8.76
2022-12-19T23:14:46.183Z,9.54
2022-12-19T23:19:42.434Z,10.360000000000001
2022-12-19T23:24:38.709Z,11.34
2022-12-19T23:29:35.938Z,13.3
2022-12-19T23:34:32.184Z,11.7
2022-12-19T23:39:28.482Z,9.22
2022-12-19T23:44:24.740Z,9.92
2022-12-19T23:49:20.985Z,9.78
2022-12-19T23:54:17.219Z,9.879999999999999
2022-12-19T23:59:13.511Z,10
